Česky Dansk Deutsch English Español Suomi Français Magyar Italiano Nederlands norsk Polski Português svenska Türkçe

 

Het Weer

Elazig (Turkije)

10:50, 11 augustus 2016 (GMT)

NWNNE
WE
SWSSE
Home            
Elazig Malatya / Erhac Diyarbakir Erzincan Urfa Batman Mus Tur-Afb Erzurum Sivas Gaziantep Kamishli Trabzon Tokat Aleppo International Airport Kayseri / Erkilet Van Iskenderun Deir Ezzor Samsun / Carsamba Adana / Incirlik Samsun Adana / Sakirpasa Kars

Om een weerknop op uw website of weblog te plaatsen, copieer onderstaande code en plak die in uw pagina. In het eerste vakje staat HTML-code, in het tweede vakje UBB-code.


Add to Google

Details

Wind speed:3 bf, 7 kn, 3.6 m/s, 8.1 miles/h, 13.0 km/h
Wind direction:NE, 040° - S, 180°
Visibility:Greater than 10000 m, 10 km, 32800 ft, 6.2 miles
Clouds:Ein wenig bewölkt at 3500 ft, 1067 m
Temperature:39°C, 102°F
Gefühlte Temperatur:37°C, 98°F
Dew-point:6°C, 43°F
Atmospheric pressure:1008 hPa, 756.1 mmHg, 29.77 inHg, 0.995 atm
Relative humidity:13.4 %
METAR:LTCA 111050Z 10007KT 040V180 9999 FEW035 39/06 Q1008 NOSIG

Snelkoppelingen

Actuele weersinformatie van de hele wereld. Voeg locaties toe met het plus (+) symbool. Deze snelkoppelingen kunnen worden toegevoegd aan Google.

Lid van de Technetium groep

website free tracking
StatCounter NetStat W3C Validator

03-07-2022 03:39:22
astro.technetium.be money.technetium.be phote.technetium.be tafeltennistafel.technetium.be www.ligfiets.net